• Join FlightAware (Why Join?)
  • Login
  • US Flag 
07:30AM EST


 

Airport Tracker/Info


-or-


 

Live Flight TrackerFlight Track Log ✈ CES2431 ✈ 05-Sep-2014 ✈ ZLXY / XIY - ZGDY / DYG

Flight Track Log - Related Links

Times and Time Zones

All times are in EDT time to prevent confusion due to time zone crossing. See the CES2431 flight status page for this flight to view local times or setup timezone preferences in your user account.

Time Position Orientation Groundspeed Altitude Reporting Facility
EDT Latitude Longitude Course Direction KTS MPH feet Rate Location/Type
10:53AM 33.2296 109.1554 164° South  Level Estimated
10:54AM 33.1359 109.1860 165° South  Level Estimated
10:55AM 33.0421 109.2165 165° South  Level Estimated
10:56AM 32.9484 109.2470 165° South  Level Estimated
10:57AM 32.8547 109.2774 165° South  Level Estimated
10:58AM 32.7609 109.3077 165° South  Level Estimated
10:59AM 32.6672 109.3380 165° South  Level Estimated
11:00AM 32.5734 109.3682 165° South  Level Estimated
11:01AM 32.4797 109.3983 165° South  Level Estimated
11:02AM 32.3859 109.4284 165° South  Level Estimated
11:03AM 32.2921 109.4584 165° South  Level Estimated
11:04AM 32.1983 109.4884 165° South  Level Estimated
11:05AM 32.1046 109.5182 165° South  Level Estimated
11:06AM 32.0108 109.5481 165° South  Level Estimated
11:07AM 31.9170 109.5779 165° South  Level Estimated
11:08AM 31.8232 109.6076 165° South  Level Estimated
11:09AM 31.7293 109.6372 165° South  Level Estimated
11:10AM 31.6355 109.6668 165° South  Level Estimated
11:11AM 31.5417 109.6963 165° South  Level Estimated
11:12AM 31.4478 109.7258 165° South  Level Estimated
11:13AM 31.3540 109.7552 165° South  Level Estimated
11:14AM 31.2601 109.7846 165° South  Level Estimated
11:15AM 31.1663 109.8139 165° South  Level Estimated
11:16AM 31.0724 109.8431 165° South  Level Estimated
11:17AM 30.9785 109.8723 165° South  Level Estimated
11:18AM 30.8847 109.9014 165° South  Level Estimated
11:19AM 30.7908 109.9305 165° South  Level Estimated
11:20AM 30.6969 109.9595 165° South  Level Estimated
11:21AM 30.6030 109.9884 165° South  Level Estimated
11:22AM 30.5091 110.0173 165° South  Level Estimated
11:23AM 30.4152 110.0462 165° South  Level Estimated
11:24AM 30.3213 110.0749 165° South  Level Estimated
11:25AM 30.2202 110.1058 165° South  Level Estimated
11:26AM 30.1192 110.1367 165° South  Level Estimated
11:27AM 30.0182 110.1674 165° South  Level Estimated
11:28AM 29.9172 110.1982 165° South  Level Estimated
11:29AM 29.8161 110.2288 165° South  Level Estimated
11:30AM 29.7151 110.2594 165° South  Level Estimated
11:31AM 29.6140 110.2899 165° South  Level Estimated
11:32AM 29.5130 110.3204 165° South  Level Estimated
11:33AM 29.4119 110.3508 165° South  Level Estimated
11:34AM 29.3108 110.3811 165° South  Level Estimated
11:35AM 29.2097 110.4114 165° South  Level Estimated
11:36AM 29.1086 110.4416 165° South  Level Estimated
11:37AM 29.1028 110.4433 165° South  Level Estimated
11:38AM 29.1028 110.4433 North  Level Estimated
11:39AM 29.1028 110.4433 North  Level Estimated
11:40AM 29.1028 110.4433 North  Level Estimated
11:41AM 29.1028 110.4433 North  Level Estimated
11:42AM 29.1028 110.4433 North  Level Estimated
11:43AM 29.1028 110.4433 North  Level Estimated
11:44AM 29.1028 110.4433 North  Level Estimated
11:45AM 29.1028 110.4433 North  Level Estimated